sensor_id;sensor_type;location;lat;lon;timestamp;pressure;altitude;pressure_sealevel;temperature;humidity
70314;BME280;57725;47.526;18.986;2022-09-02T00:01:19;99932.41;;;20.74;79.04
70314;BME280;57725;47.526;18.986;2022-09-02T00:03:46;99932.53;;;20.72;78.79
70314;BME280;57725;47.526;18.986;2022-09-02T00:06:19;99936.03;;;20.73;79.10
70314;BME280;57725;47.526;18.986;2022-09-02T00:08:51;99930.84;;;20.71;79.10
70314;BME280;57725;47.526;18.986;2022-09-02T00:11:20;99927.34;;;20.71;78.73
70314;BME280;57725;47.526;18.986;2022-09-02T00:13:51;99931.69;;;20.72;78.74
70314;BME280;57725;47.526;18.986;2022-09-02T00:16:19;99927.34;;;20.71;78.78
70314;BME280;57725;47.526;18.986;2022-09-02T00:18:47;99928.31;;;20.70;78.48
70314;BME280;57725;47.526;18.986;2022-09-02T00:21:16;99928.31;;;20.70;78.63
70314;BME280;57725;47.526;18.986;2022-09-02T00:23:43;99928.31;;;20.70;78.61
70314;BME280;57725;47.526;18.986;2022-09-02T00:26:11;99923.84;;;20.70;78.91
70314;BME280;57725;47.526;18.986;2022-09-02T00:28:40;99916.00;;;20.69;78.48
70314;BME280;57725;47.526;18.986;2022-09-02T00:31:06;99931.94;;;20.69;78.72
70314;BME280;57725;47.526;18.986;2022-09-02T00:33:31;99926.75;;;20.67;78.75
70314;BME280;57725;47.526;18.986;2022-09-02T00:36:02;99932.06;;;20.67;79.14
70314;BME280;57725;47.526;18.986;2022-09-02T00:38:28;99919.91;;;20.65;78.74
70314;BME280;57725;47.526;18.986;2022-09-02T00:40:58;99927.72;;;20.66;78.90
70314;BME280;57725;47.526;18.986;2022-09-02T00:43:48;99916.25;;;20.66;79.05
70314;BME280;57725;47.526;18.986;2022-09-02T00:46:20;99914.44;;;20.66;78.79
70314;BME280;57725;47.526;18.986;2022-09-02T00:49:03;99921.56;;;20.66;78.73
70314;BME280;57725;47.526;18.986;2022-09-02T00:51:36;99911.09;;;20.64;78.60
70314;BME280;57725;47.526;18.986;2022-09-02T00:54:04;99907.72;;;20.62;78.62
70314;BME280;57725;47.526;18.986;2022-09-02T00:56:31;99907.59;;;20.64;78.62
70314;BME280;57725;47.526;18.986;2022-09-02T00:58:58;99906.03;;;20.61;78.77
70314;BME280;57725;47.526;18.986;2022-09-02T01:01:25;99912.19;;;20.62;78.95
70314;BME280;57725;47.526;18.986;2022-09-02T01:03:51;99909.53;;;20.62;78.78
70314;BME280;57725;47.526;18.986;2022-09-02T01:06:26;99910.63;;;20.59;78.69
70314;BME280;57725;47.526;18.986;2022-09-02T01:09:03;99908.94;;;20.58;79.15
70314;BME280;57725;47.526;18.986;2022-09-02T01:11:44;99909.66;;;20.60;78.96
70314;BME280;57725;47.526;18.986;2022-09-02T01:14:12;99909.78;;;20.58;78.81
70314;BME280;57725;47.526;18.986;2022-09-02T01:16:41;99908.94;;;20.58;78.93
70314;BME280;57725;47.526;18.986;2022-09-02T01:19:32;99908.94;;;20.58;78.87
70314;BME280;57725;47.526;18.986;2022-09-02T01:21:59;99909.91;;;20.57;78.58
70314;BME280;57725;47.526;18.986;2022-09-02T01:24:29;99908.09;;;20.57;78.84
70314;BME280;57725;47.526;18.986;2022-09-02T01:26:59;99903.88;;;20.55;78.47
70314;BME280;57725;47.526;18.986;2022-09-02T01:29:29;99904.84;;;20.54;78.79
70314;BME280;57725;47.526;18.986;2022-09-02T01:31:55;99910.03;;;20.55;78.76
70314;BME280;57725;47.526;18.986;2022-09-02T01:34:20;99907.50;;;20.54;78.60
70314;BME280;57725;47.526;18.986;2022-09-02T01:36:48;99911.00;;;20.54;78.57
70314;BME280;57725;47.526;18.986;2022-09-02T01:39:14;99904.03;;;20.53;78.64
70314;BME280;57725;47.526;18.986;2022-09-02T01:41:41;99903.19;;;20.53;78.96
70314;BME280;57725;47.526;18.986;2022-09-02T01:44:10;99901.50;;;20.52;78.77
70314;BME280;57725;47.526;18.986;2022-09-02T01:46:36;99905.97;;;20.51;78.99
70314;BME280;57725;47.526;18.986;2022-09-02T01:49:02;99903.44;;;20.50;78.71
70314;BME280;57725;47.526;18.986;2022-09-02T01:51:30;99913.09;;;20.51;78.83
70314;BME280;57725;47.526;18.986;2022-09-02T01:53:58;99908.75;;;20.50;78.97
70314;BME280;57725;47.526;18.986;2022-09-02T01:56:23;99906.09;;;20.50;78.79
70314;BME280;57725;47.526;18.986;2022-09-02T01:58:49;99902.59;;;20.49;78.77
70314;BME280;57725;47.526;18.986;2022-09-02T02:01:16;99899.94;;;20.49;78.63
70314;BME280;57725;47.526;18.986;2022-09-02T02:03:44;99906.22;;;20.48;78.49
70314;BME280;57725;47.526;18.986;2022-09-02T02:06:12;99899.22;;;20.47;78.82
70314;BME280;57725;47.526;18.986;2022-09-02T02:08:41;99895.72;;;20.47;78.83
70314;BME280;57725;47.526;18.986;2022-09-02T02:11:07;99901.03;;;20.47;78.89
70314;BME280;57725;47.526;18.986;2022-09-02T02:13:33;99892.34;;;20.45;78.86
70314;BME280;57725;47.526;18.986;2022-09-02T02:16:02;99898.50;;;20.45;78.66
70314;BME280;57725;47.526;18.986;2022-09-02T02:18:29;99892.34;;;20.45;78.96
70314;BME280;57725;47.526;18.986;2022-09-02T02:20:55;99892.47;;;20.43;78.39
70314;BME280;57725;47.526;18.986;2022-09-02T02:23:20;99892.47;;;20.43;78.46
70314;BME280;57725;47.526;18.986;2022-09-02T02:25:47;99889.81;;;20.43;78.50
70314;BME280;57725;47.526;18.986;2022-09-02T02:28:13;99882.97;;;20.41;78.79
70314;BME280;57725;47.526;18.986;2022-09-02T02:30:41;99883.81;;;20.41;78.84
70314;BME280;57725;47.526;18.986;2022-09-02T02:33:06;99887.31;;;20.42;78.80
70314;BME280;57725;47.526;18.986;2022-09-02T02:35:31;99890.94;;;20.41;78.55
70314;BME280;57725;47.526;18.986;2022-09-02T02:37:57;99893.56;;;20.41;78.84
70314;BME280;57725;47.526;18.986;2022-09-02T02:40:25;99887.44;;;20.40;78.74
70314;BME280;57725;47.526;18.986;2022-09-02T02:42:51;99892.72;;;20.40;78.70
70314;BME280;57725;47.526;18.986;2022-09-02T02:45:25;99889.25;;;20.40;78.42
70314;BME280;57725;47.526;18.986;2022-09-02T02:47:53;99886.59;;;20.40;78.74
70314;BME280;57725;47.526;18.986;2022-09-02T02:50:21;99878.63;;;20.40;78.51
70314;BME280;57725;47.526;18.986;2022-09-02T02:52:47;99884.06;;;20.38;78.59
70314;BME280;57725;47.526;18.986;2022-09-02T02:55:14;99884.91;;;20.39;78.83
70314;BME280;57725;47.526;18.986;2022-09-02T02:57:44;99882.38;;;20.37;78.78
70314;BME280;57725;47.526;18.986;2022-09-02T03:00:28;99890.31;;;20.37;78.71
70314;BME280;57725;47.526;18.986;2022-09-02T03:02:58;99891.16;;;20.38;78.79
70314;BME280;57725;47.526;18.986;2022-09-02T03:05:25;99882.47;;;20.36;78.28
70314;BME280;57725;47.526;18.986;2022-09-02T03:07:50;99889.59;;;20.35;78.54
70314;BME280;57725;47.526;18.986;2022-09-02T03:10:19;99894.91;;;20.35;78.61
70314;BME280;57725;47.526;18.986;2022-09-02T03:12:48;99874.59;;;20.34;79.11
70314;BME280;57725;47.526;18.986;2022-09-02T03:15:18;99880.88;;;20.33;78.39
70314;BME280;57725;47.526;18.986;2022-09-02T03:17:45;99877.38;;;20.33;78.20
70314;BME280;57725;47.526;18.986;2022-09-02T03:20:11;99867.72;;;20.32;78.49
70314;BME280;57725;47.526;18.986;2022-09-02T03:22:39;99870.28;;;20.33;78.42
70314;BME280;57725;47.526;18.986;2022-09-02T03:25:06;99874.84;;;20.31;78.43
70314;BME280;57725;47.526;18.986;2022-09-02T03:27:41;99875.69;;;20.32;78.46
70314;BME280;57725;47.526;18.986;2022-09-02T03:30:14;99865.25;;;20.30;78.62
70314;BME280;57725;47.526;18.986;2022-09-02T03:32:43;99879.31;;;20.31;78.77
70314;BME280;57725;47.526;18.986;2022-09-02T03:35:13;99874.16;;;20.29;78.24
70314;BME280;57725;47.526;18.986;2022-09-02T03:37:41;99875.00;;;20.30;78.41
70314;BME280;57725;47.526;18.986;2022-09-02T03:40:10;99877.66;;;20.30;78.17
70314;BME280;57725;47.526;18.986;2022-09-02T03:42:36;99875.97;;;20.29;78.71
70314;BME280;57725;47.526;18.986;2022-09-02T03:45:05;99880.56;;;20.27;78.59
70314;BME280;57725;47.526;18.986;2022-09-02T03:47:32;99880.44;;;20.28;78.43
70314;BME280;57725;47.526;18.986;2022-09-02T03:49:58;99880.44;;;20.28;78.34
70314;BME280;57725;47.526;18.986;2022-09-02T03:52:24;99876.09;;;20.27;78.61
70314;BME280;57725;47.526;18.986;2022-09-02T03:54:49;99875.25;;;20.27;78.19
70314;BME280;57725;47.526;18.986;2022-09-02T03:57:17;99877.06;;;20.26;78.44
70314;BME280;57725;47.526;18.986;2022-09-02T03:59:45;99879.84;;;20.24;78.07
70314;BME280;57725;47.526;18.986;2022-09-02T04:02:10;99879.72;;;20.26;78.19
70314;BME280;57725;47.526;18.986;2022-09-02T04:04:45;99879.00;;;20.24;78.24
70314;BME280;57725;47.526;18.986;2022-09-02T04:07:10;99882.50;;;20.24;78.49
70314;BME280;57725;47.526;18.986;2022-09-02T04:09:35;99874.66;;;20.23;78.34
70314;BME280;57725;47.526;18.986;2022-09-02T04:12:05;99892.28;;;20.24;78.18
70314;BME280;57725;47.526;18.986;2022-09-02T04:14:31;99879.13;;;20.22;78.51
70314;BME280;57725;47.526;18.986;2022-09-02T04:16:57;99885.28;;;20.23;78.21
70314;BME280;57725;47.526;18.986;2022-09-02T04:19:24;99878.41;;;20.20;78.46
70314;BME280;57725;47.526;18.986;2022-09-02T04:21:50;99881.22;;;20.19;78.17
70314;BME280;57725;47.526;18.986;2022-09-02T04:24:17;99885.53;;;20.20;78.46
70314;BME280;57725;47.526;18.986;2022-09-02T04:26:45;99892.63;;;20.19;78.49
70314;BME280;57725;47.526;18.986;2022-09-02T04:29:14;99883.72;;;20.20;78.23
70314;BME280;57725;47.526;18.986;2022-09-02T04:31:42;99884.69;;;20.19;78.06
70314;BME280;57725;47.526;18.986;2022-09-02T04:34:07;99886.53;;;20.19;78.24
70314;BME280;57725;47.526;18.986;2022-09-02T04:36:33;99883.88;;;20.19;78.28
70314;BME280;57725;47.526;18.986;2022-09-02T04:38:59;99878.56;;;20.19;78.05
70314;BME280;57725;47.526;18.986;2022-09-02T04:41:29;99880.50;;;20.17;78.26
70314;BME280;57725;47.526;18.986;2022-09-02T04:44:00;99879.66;;;20.16;78.39
70314;BME280;57725;47.526;18.986;2022-09-02T04:46:31;99885.78;;;20.17;78.29
70314;BME280;57725;47.526;18.986;2022-09-02T04:48:58;99890.38;;;20.15;78.24
70314;BME280;57725;47.526;18.986;2022-09-02T04:51:25;99886.75;;;20.16;77.95
70314;BME280;57725;47.526;18.986;2022-09-02T04:53:53;99880.59;;;20.15;78.00
70314;BME280;57725;47.526;18.986;2022-09-02T04:56:24;99886.75;;;20.16;78.20
70314;BME280;57725;47.526;18.986;2022-09-02T04:58:51;99885.06;;;20.15;78.19
70314;BME280;57725;47.526;18.986;2022-09-02T05:01:21;99887.72;;;20.15;78.19
70314;BME280;57725;47.526;18.986;2022-09-02T05:03:49;99891.22;;;20.15;77.88
70314;BME280;57725;47.526;18.986;2022-09-02T05:06:21;99886.88;;;20.14;78.22
70314;BME280;57725;47.526;18.986;2022-09-02T05:08:48;99892.31;;;20.13;78.16
70314;BME280;57725;47.526;18.986;2022-09-02T05:11:18;99896.78;;;20.12;78.34
70314;BME280;57725;47.526;18.986;2022-09-02T05:13:45;99891.47;;;20.12;78.23
70314;BME280;57725;47.526;18.986;2022-09-02T05:16:17;99897.75;;;20.11;78.14
70314;BME280;57725;47.526;18.986;2022-09-02T05:18:46;99897.75;;;20.11;78.45
70314;BME280;57725;47.526;18.986;2022-09-02T05:21:14;99895.94;;;20.12;78.48
70314;BME280;57725;47.526;18.986;2022-09-02T05:23:42;99899.56;;;20.11;78.22
70314;BME280;57725;47.526;18.986;2022-09-02T05:26:09;99895.22;;;20.10;78.41
70314;BME280;57725;47.526;18.986;2022-09-02T05:28:35;99897.03;;;20.09;78.27
70314;BME280;57725;47.526;18.986;2022-09-02T05:31:07;99897.97;;;20.08;78.64
70314;BME280;57725;47.526;18.986;2022-09-02T05:33:34;99895.34;;;20.08;78.19
70314;BME280;57725;47.526;18.986;2022-09-02T05:36:08;99899.69;;;20.09;78.24
70314;BME280;57725;47.526;18.986;2022-09-02T05:38:36;99892.69;;;20.08;78.28
70314;BME280;57725;47.526;18.986;2022-09-02T05:41:11;99893.53;;;20.09;78.49
70314;BME280;57725;47.526;18.986;2022-09-02T05:43:38;99893.78;;;20.06;78.27
70314;BME280;57725;47.526;18.986;2022-09-02T05:46:09;99897.41;;;20.05;78.38
70314;BME280;57725;47.526;18.986;2022-09-02T05:48:36;99901.75;;;20.06;78.27
70314;BME280;57725;47.526;18.986;2022-09-02T05:51:21;99888.59;;;20.04;78.45
70314;BME280;57725;47.526;18.986;2022-09-02T05:53:47;99894.75;;;20.05;78.45
70314;BME280;57725;47.526;18.986;2022-09-02T05:56:14;99893.91;;;20.04;78.32
70314;BME280;57725;47.526;18.986;2022-09-02T05:58:40;99886.91;;;20.03;78.69
70314;BME280;57725;47.526;18.986;2022-09-02T06:01:10;99896.56;;;20.04;78.28
70314;BME280;57725;47.526;18.986;2022-09-02T06:03:36;99882.56;;;20.02;78.53
70314;BME280;57725;47.526;18.986;2022-09-02T06:06:05;99889.56;;;20.03;78.58
70314;BME280;57725;47.526;18.986;2022-09-02T06:08:33;99896.69;;;20.03;78.74
70314;BME280;57725;47.526;18.986;2022-09-02T06:11:00;99896.69;;;20.03;78.82
70314;BME280;57725;47.526;18.986;2022-09-02T06:13:33;99893.19;;;20.02;78.41
70314;BME280;57725;47.526;18.986;2022-09-02T06:16:01;99895.00;;;20.02;78.41
70314;BME280;57725;47.526;18.986;2022-09-02T06:18:29;99888.00;;;20.01;78.64
70314;BME280;57725;47.526;18.986;2022-09-02T06:20:57;99896.94;;;20.00;78.64
70314;BME280;57725;47.526;18.986;2022-09-02T06:23:25;99895.13;;;20.00;78.98
70314;BME280;57725;47.526;18.986;2022-09-02T06:25:50;99896.94;;;20.00;78.75
70314;BME280;57725;47.526;18.986;2022-09-02T06:28:18;99904.03;;;19.99;78.75
70314;BME280;57725;47.526;18.986;2022-09-02T06:30:45;99896.09;;;19.99;78.79
70314;BME280;57725;47.526;18.986;2022-09-02T06:33:13;99895.25;;;19.99;78.79
70314;BME280;57725;47.526;18.986;2022-09-02T06:35:42;99894.41;;;19.98;78.60
70314;BME280;57725;47.526;18.986;2022-09-02T06:38:09;99893.56;;;19.98;78.73
70314;BME280;57725;47.526;18.986;2022-09-02T06:40:35;99898.75;;;19.99;78.95
70314;BME280;57725;47.526;18.986;2022-09-02T06:43:06;99899.72;;;19.98;78.84
70314;BME280;57725;47.526;18.986;2022-09-02T06:45:31;99902.34;;;19.98;78.76
70314;BME280;57725;47.526;18.986;2022-09-02T06:47:56;99903.31;;;19.97;78.75
70314;BME280;57725;47.526;18.986;2022-09-02T06:50:22;99900.66;;;19.97;79.24
70314;BME280;57725;47.526;18.986;2022-09-02T06:52:47;99906.94;;;19.96;78.57
70314;BME280;57725;47.526;18.986;2022-09-02T06:55:12;99906.94;;;19.96;78.88
70314;BME280;57725;47.526;18.986;2022-09-02T06:57:41;99905.13;;;19.97;78.93
70314;BME280;57725;47.526;18.986;2022-09-02T07:00:08;99903.47;;;19.96;78.93
70314;BME280;57725;47.526;18.986;2022-09-02T07:02:38;99902.47;;;19.97;78.85
70314;BME280;57725;47.526;18.986;2022-09-02T07:05:06;99891.03;;;19.96;79.11
70314;BME280;57725;47.526;18.986;2022-09-02T07:07:42;99895.50;;;19.96;78.55
70314;BME280;57725;47.526;18.986;2022-09-02T07:10:12;99906.13;;;19.96;78.53
70314;BME280;57725;47.526;18.986;2022-09-02T07:12:39;99892.03;;;19.95;78.88
70314;BME280;57725;47.526;18.986;2022-09-02T07:15:08;99892.97;;;19.94;78.77
70314;BME280;57725;47.526;18.986;2022-09-02T07:17:34;99892.03;;;19.95;78.69
70314;BME280;57725;47.526;18.986;2022-09-02T07:19:59;99895.63;;;19.94;78.68
70314;BME280;57725;47.526;18.986;2022-09-02T07:22:26;99890.22;;;19.96;78.76
70314;BME280;57725;47.526;18.986;2022-09-02T07:24:52;99898.16;;;19.96;78.35
70314;BME280;57725;47.526;18.986;2022-09-02T07:27:20;99901.78;;;19.95;78.72
70314;BME280;57725;47.526;18.986;2022-09-02T07:29:46;99898.28;;;19.94;78.55
70314;BME280;57725;47.526;18.986;2022-09-02T07:32:15;99894.78;;;19.94;78.73
70314;BME280;57725;47.526;18.986;2022-09-02T07:34:43;99899.97;;;19.95;78.80
70314;BME280;57725;47.526;18.986;2022-09-02T07:37:11;99894.66;;;19.95;78.49
70314;BME280;57725;47.526;18.986;2022-09-02T07:39:36;99902.63;;;19.95;78.70
70314;BME280;57725;47.526;18.986;2022-09-02T07:42:02;99894.66;;;19.95;78.49
70314;BME280;57725;47.526;18.986;2022-09-02T07:44:30;99897.31;;;19.95;78.44
70314;BME280;57725;47.526;18.986;2022-09-02T07:46:58;99890.31;;;19.94;78.77
70314;BME280;57725;47.526;18.986;2022-09-02T07:49:31;99896.47;;;19.95;78.54
70314;BME280;57725;47.526;18.986;2022-09-02T07:51:56;99893.81;;;19.95;78.40
70314;BME280;57725;47.526;18.986;2022-09-02T07:54:25;99896.47;;;19.95;78.66
70314;BME280;57725;47.526;18.986;2022-09-02T07:56:51;99885.03;;;19.94;78.60
70314;BME280;57725;47.526;18.986;2022-09-02T07:59:17;99896.47;;;19.95;78.44
70314;BME280;57725;47.526;18.986;2022-09-02T08:01:46;99897.44;;;19.94;78.19
70314;BME280;57725;47.526;18.986;2022-09-02T08:04:17;99892.03;;;19.95;78.49
70314;BME280;57725;47.526;18.986;2022-09-02T08:06:49;99897.31;;;19.95;78.31
70314;BME280;57725;47.526;18.986;2022-09-02T08:09:19;99892.84;;;19.96;78.84
70314;BME280;57725;47.526;18.986;2022-09-02T08:11:47;99895.50;;;19.96;78.27
70314;BME280;57725;47.526;18.986;2022-09-02T08:14:19;99904.44;;;19.95;78.41
70314;BME280;57725;47.526;18.986;2022-09-02T08:16:46;99900.81;;;19.96;78.40
70314;BME280;57725;47.526;18.986;2022-09-02T08:19:12;99895.50;;;19.96;78.61
70314;BME280;57725;47.526;18.986;2022-09-02T08:21:38;99895.50;;;19.96;78.82
70314;BME280;57725;47.526;18.986;2022-09-02T08:24:05;99893.81;;;19.95;78.78
70314;BME280;57725;47.526;18.986;2022-09-02T08:26:34;99897.31;;;19.95;78.81
70314;BME280;57725;47.526;18.986;2022-09-02T08:29:06;99891.16;;;19.95;78.60
70314;BME280;57725;47.526;18.986;2022-09-02T08:31:32;99896.31;;;19.96;78.80
70314;BME280;57725;47.526;18.986;2022-09-02T08:33:58;99898.16;;;19.96;79.08
70314;BME280;57725;47.526;18.986;2022-09-02T08:36:26;99885.88;;;19.95;78.63
70314;BME280;57725;47.526;18.986;2022-09-02T08:38:57;99892.03;;;19.95;78.88
70314;BME280;57725;47.526;18.986;2022-09-02T08:41:26;99888.38;;;19.96;78.77
70314;BME280;57725;47.526;18.986;2022-09-02T08:43:57;99887.69;;;19.94;79.00
70314;BME280;57725;47.526;18.986;2022-09-02T08:46:25;99884.75;;;19.97;79.13
70314;BME280;57725;47.526;18.986;2022-09-02T08:49:23;99883.78;;;19.98;79.14
70314;BME280;57725;47.526;18.986;2022-09-02T08:51:56;99875.81;;;19.98;78.83
70314;BME280;57725;47.526;18.986;2022-09-02T08:54:49;99884.75;;;19.97;78.98
70314;BME280;57725;47.526;18.986;2022-09-02T08:57:18;99880.28;;;19.98;78.84
70314;BME280;57725;47.526;18.986;2022-09-02T08:59:46;99888.25;;;19.98;78.84
70314;BME280;57725;47.526;18.986;2022-09-02T09:04:52;99884.63;;;19.99;79.09
70314;BME280;57725;47.526;18.986;2022-09-02T09:15:58;99874.84;;;19.99;79.33
70314;BME280;57725;47.526;18.986;2022-09-02T09:21:14;99874.84;;;19.99;79.19
70314;BME280;57725;47.526;18.986;2022-09-02T09:23:40;99868.59;;;20.00;79.32
70314;BME280;57725;47.526;18.986;2022-09-02T09:26:16;99872.94;;;20.01;79.19
70314;BME280;57725;47.526;18.986;2022-09-02T09:28:46;99875.59;;;20.01;79.34
70314;BME280;57725;47.526;18.986;2022-09-02T09:31:23;99870.41;;;20.00;79.10
70314;BME280;57725;47.526;18.986;2022-09-02T09:34:11;99868.47;;;20.02;78.88
70314;BME280;57725;47.526;18.986;2022-09-02T09:39:27;99866.66;;;20.02;79.06
70314;BME280;57725;47.526;18.986;2022-09-02T09:42:02;99871.97;;;20.02;78.93
70314;BME280;57725;47.526;18.986;2022-09-02T09:47:04;99863.88;;;20.04;79.03
70314;BME280;57725;47.526;18.986;2022-09-02T09:49:31;99866.03;;;20.10;76.50
70314;BME280;57725;47.526;18.986;2022-09-02T09:51:57;99857.50;;;20.06;74.95
70314;BME280;57725;47.526;18.986;2022-09-02T09:54:27;99853.16;;;20.05;74.44
70314;BME280;57725;47.526;18.986;2022-09-02T09:56:55;99847.00;;;20.05;74.82
70314;BME280;57725;47.526;18.986;2022-09-02T09:59:47;99845.31;;;20.04;74.90
70314;BME280;57725;47.526;18.986;2022-09-02T10:02:24;99851.47;;;20.04;75.29
70314;BME280;57725;47.526;18.986;2022-09-02T10:04:54;99842.66;;;20.04;75.44
70314;BME280;57725;47.526;18.986;2022-09-02T10:07:38;99840.84;;;20.04;76.27
70314;BME280;57725;47.526;18.986;2022-09-02T10:10:18;99853.16;;;20.05;76.47
70314;BME280;57725;47.526;18.986;2022-09-02T10:12:48;99852.31;;;20.05;76.57
70314;BME280;57725;47.526;18.986;2022-09-02T10:15:33;99847.84;;;20.05;76.69
70314;BME280;57725;47.526;18.986;2022-09-02T10:23:43;99852.03;;;20.08;77.07
70314;BME280;57725;47.526;18.986;2022-09-02T10:28:57;99849.25;;;20.09;76.96
70314;BME280;57725;47.526;18.986;2022-09-02T10:31:44;99850.94;;;20.10;77.34
70314;BME280;57725;47.526;18.986;2022-09-02T10:37:16;99857.94;;;20.11;77.57
70314;BME280;57725;47.526;18.986;2022-09-02T10:53:35;99842.59;;;20.15;77.97
70314;BME280;57725;47.526;18.986;2022-09-02T10:56:07;99853.09;;;20.16;77.72
70314;BME280;57725;47.526;18.986;2022-09-02T11:01:31;99854.78;;;20.17;77.70
70314;BME280;57725;47.526;18.986;2022-09-02T11:06:38;99858.97;;;20.20;78.01
70314;BME280;57725;47.526;18.986;2022-09-02T11:09:56;99854.50;;;20.20;78.26
70314;BME280;57725;47.526;18.986;2022-09-02T11:12:38;99852.69;;;20.21;77.89
70314;BME280;57725;47.526;18.986;2022-09-02T11:15:23;99843.06;;;20.20;78.03
70314;BME280;57725;47.526;18.986;2022-09-02T11:20:33;99844.75;;;20.21;78.11
70314;BME280;57725;47.526;18.986;2022-09-02T11:28:57;99843.66;;;20.23;77.89
70314;BME280;57725;47.526;18.986;2022-09-02T11:31:37;99835.44;;;20.27;78.04
70314;BME280;57725;47.526;18.986;2022-09-02T11:36:49;99833.63;;;20.27;78.11
70314;BME280;57725;47.526;18.986;2022-09-02T11:39:44;99837.97;;;20.28;77.75
70314;BME280;57725;47.526;18.986;2022-09-02T11:46:13;99844.00;;;20.30;78.37
70314;BME280;57725;47.526;18.986;2022-09-02T11:51:20;99820.78;;;20.32;78.24
70314;BME280;57725;47.526;18.986;2022-09-02T11:53:49;99821.63;;;20.33;78.50
70314;BME280;57725;47.526;18.986;2022-09-02T11:56:21;99820.66;;;20.34;78.49
70314;BME280;57725;47.526;18.986;2022-09-02T11:58:51;99815.38;;;20.34;78.25
70314;BME280;57725;47.526;18.986;2022-09-02T12:04:01;99814.41;;;20.35;78.36
70314;BME280;57725;47.526;18.986;2022-09-02T12:06:28;99811.75;;;20.35;78.35
70314;BME280;57725;47.526;18.986;2022-09-02T12:09:05;99816.94;;;20.36;78.59
70314;BME280;57725;47.526;18.986;2022-09-02T12:11:44;99816.81;;;20.38;78.34
70314;BME280;57725;47.526;18.986;2022-09-02T12:17:07;99804.41;;;20.38;78.69
70314;BME280;57725;47.526;18.986;2022-09-02T12:19:44;99804.28;;;20.40;78.63
70314;BME280;57725;47.526;18.986;2022-09-02T12:24:50;99797.16;;;20.40;78.71
70314;BME280;57725;47.526;18.986;2022-09-02T12:27:37;99796.19;;;20.41;78.81
70314;BME280;57725;47.526;18.986;2022-09-02T12:30:10;99793.53;;;20.41;78.64
70314;BME280;57725;47.526;18.986;2022-09-02T12:40:38;99787.09;;;20.44;78.79
70314;BME280;57725;47.526;18.986;2022-09-02T12:43:21;99786.13;;;20.45;78.71
70314;BME280;57725;47.526;18.986;2022-09-02T12:45:50;99788.78;;;20.45;78.37
70314;BME280;57725;47.526;18.986;2022-09-02T12:48:18;99781.53;;;20.47;78.52
70314;BME280;57725;47.526;18.986;2022-09-02T12:50:59;99786.84;;;20.47;78.29
70314;BME280;57725;47.526;18.986;2022-09-02T12:53:49;99778.88;;;20.47;78.43
70314;BME280;57725;47.526;18.986;2022-09-02T12:56:21;99781.41;;;20.48;77.98
70314;BME280;57725;47.526;18.986;2022-09-02T12:58:50;99776.94;;;20.49;78.32
70314;BME280;57725;47.526;18.986;2022-09-02T13:10:26;99770.53;;;20.51;78.23
70314;BME280;57725;47.526;18.986;2022-09-02T13:27:10;99777.25;;;20.55;78.10
70314;BME280;57725;47.526;18.986;2022-09-02T13:32:28;99776.28;;;20.56;78.30
70314;BME280;57725;47.526;18.986;2022-09-02T13:34:57;99762.16;;;20.56;78.05
70314;BME280;57725;47.526;18.986;2022-09-02T13:37:41;99771.66;;;20.58;78.46
70314;BME280;57725;47.526;18.986;2022-09-02T13:40:22;99761.88;;;20.59;78.11
70314;BME280;57725;47.526;18.986;2022-09-02T13:42:54;99764.69;;;20.57;78.29
70314;BME280;57725;47.526;18.986;2022-09-02T13:45:21;99763.56;;;20.60;78.14
70314;BME280;57725;47.526;18.986;2022-09-02T13:47:49;99763.56;;;20.60;78.23
70314;BME280;57725;47.526;18.986;2022-09-02T13:50:19;99761.75;;;20.60;78.26
70314;BME280;57725;47.526;18.986;2022-09-02T13:52:49;99758.13;;;20.62;78.33
70314;BME280;57725;47.526;18.986;2022-09-02T13:55:16;99760.78;;;20.62;78.53
70314;BME280;57725;47.526;18.986;2022-09-02T13:57:53;99752.69;;;20.63;78.33
70314;BME280;57725;47.526;18.986;2022-09-02T14:00:27;99746.53;;;20.63;78.55
70314;BME280;57725;47.526;18.986;2022-09-02T14:03:00;99759.81;;;20.63;78.11
70314;BME280;57725;47.526;18.986;2022-09-02T14:05:30;99755.34;;;20.63;78.18
70314;BME280;57725;47.526;18.986;2022-09-02T14:07:59;99757.03;;;20.64;78.21
70314;BME280;57725;47.526;18.986;2022-09-02T14:10:29;99753.53;;;20.64;78.03
70314;BME280;57725;47.526;18.986;2022-09-02T14:12:56;99756.88;;;20.66;78.14
70314;BME280;57725;47.526;18.986;2022-09-02T14:15:26;99731.16;;;20.66;77.88
70314;BME280;57725;47.526;18.986;2022-09-02T14:18:21;99753.25;;;20.67;77.91
70314;BME280;57725;47.526;18.986;2022-09-02T14:23:31;99753.25;;;20.67;78.15
70314;BME280;57725;47.526;18.986;2022-09-02T14:26:01;99754.81;;;20.69;78.04
70314;BME280;57725;47.526;18.986;2022-09-02T14:28:29;99759.28;;;20.69;78.34
70314;BME280;57725;47.526;18.986;2022-09-02T14:33:45;99755.66;;;20.70;78.40
70314;BME280;57725;47.526;18.986;2022-09-02T14:36:19;99760.13;;;20.69;78.24
70314;BME280;57725;47.526;18.986;2022-09-02T14:39:12;99760.97;;;20.70;78.19
70314;BME280;57725;47.526;18.986;2022-09-02T14:41:46;99759.16;;;20.70;78.22
70314;BME280;57725;47.526;18.986;2022-09-02T14:44:16;99756.50;;;20.70;78.24
70314;BME280;57725;47.526;18.986;2022-09-02T14:46:43;99756.50;;;20.70;78.47
70314;BME280;57725;47.526;18.986;2022-09-02T14:49:18;99760.00;;;20.71;78.41
70314;BME280;57725;47.526;18.986;2022-09-02T14:54:50;99759.03;;;20.72;78.16
70314;BME280;57725;47.526;18.986;2022-09-02T14:59:50;99763.38;;;20.73;78.06
70314;BME280;57725;47.526;18.986;2022-09-02T15:02:22;99766.75;;;20.75;78.27
70314;BME280;57725;47.526;18.986;2022-09-02T15:04:48;99766.03;;;20.73;78.14
70314;BME280;57725;47.526;18.986;2022-09-02T15:07:16;99765.06;;;20.74;78.14